Time;durP1;ratioP1;P1;durP2;ratioP2;P2;SDS_P1;SDS_P2;PMS_P1;PMS_P2;Temp;Humidity;BMP_temperature;BMP_pressure;BME280_temperature;BME280_humidity;BME280_pressure;Samples;Min_cycle;Max_cycle;Signal;HPM_P1;HPM_P2
2023/12/17 00:00:40;;;;;;;12.30;8.90;;;;;;;2.80;100.00;101459.63;87563;277;136775;-75
2023/12/17 00:02:42;;;;;;;13.10;10.20;;;;;;;2.82;100.00;101458.09;87196;270;22838;-75
2023/12/17 00:05:04;;;;;;;13.80;10.00;;;;;;;2.87;100.00;101447.17;87095;269;137169;-76
2023/12/17 00:07:06;;;;;;;12.60;9.30;;;;;;;2.91;100.00;101446.66;87167;270;22573;-74
2023/12/17 00:09:09;;;;;;;14.40;11.40;;;;;;;2.91;100.00;101438.61;87199;266;137840;-75
2023/12/17 00:11:11;;;;;;;15.30;10.90;;;;;;;2.95;100.00;101442.61;87298;266;24058;-77
2023/12/17 00:13:14;;;;;;;18.10;11.60;;;;;;;2.94;100.00;101445.79;87047;269;138338;-75
2023/12/17 00:15:16;;;;;;;19.00;11.60;;;;;;;2.89;100.00;101440.83;87349;270;26382;-74
2023/12/17 00:17:18;;;;;;;18.70;11.30;;;;;;;2.89;100.00;101435.39;87057;269;136882;-76
2023/12/17 00:19:20;;;;;;;17.70;11.80;;;;;;;2.94;100.00;101434.05;87117;271;25296;-75
2023/12/17 00:21:22;;;;;;;16.80;12.20;;;;;;;2.98;100.00;101430.22;87091;278;136805;-74
2023/12/17 00:23:24;;;;;;;15.60;11.90;;;;;;;2.98;100.00;101429.55;87154;274;25238;-73
2023/12/17 00:25:28;;;;;;;19.10;11.80;;;;;;;2.99;100.00;101423.88;87552;271;138247;-75
2023/12/17 00:27:32;;;;;;;13.80;11.10;;;;;;;2.99;100.00;101423.09;87190;267;22587;-74
2023/12/17 00:29:34;;;;;;;17.80;12.10;;;;;;;3.00;100.00;101421.15;87147;266;137248;-76
2023/12/17 00:31:36;;;;;;;23.00;12.90;;;;;;;2.99;100.00;101418.94;87146;269;22734;-74
2023/12/17 00:33:38;;;;;;;15.80;12.50;;;;;;;2.99;100.00;101418.04;87111;278;137787;-74
2023/12/17 00:35:40;;;;;;;14.50;11.50;;;;;;;3.03;100.00;101418.98;87167;271;23742;-74
2023/12/17 00:37:42;;;;;;;15.50;12.40;;;;;;;3.04;100.00;101424.36;87073;271;137184;-77
2023/12/17 00:39:44;;;;;;;16.20;13.20;;;;;;;2.86;100.00;101398.60;87194;274;24010;-75
2023/12/17 00:41:46;;;;;;;18.30;12.80;;;;;;;3.02;100.00;101421.55;87084;278;137372;-74
2023/12/17 00:43:49;;;;;;;14.00;11.00;;;;;;;3.02;100.00;101417.98;87166;267;22567;-75
2023/12/17 00:45:51;;;;;;;17.70;13.00;;;;;;;2.99;100.00;101410.69;87012;270;137700;-73
2023/12/17 00:47:52;;;;;;;17.70;13.10;;;;;;;2.93;100.00;101408.23;87157;274;25134;-77
2023/12/17 00:49:55;;;;;;;22.70;15.20;;;;;;;2.89;100.00;101403.62;86997;279;136883;-76
2023/12/17 00:51:57;;;;;;;26.20;15.80;;;;;;;2.88;100.00;101400.40;87155;271;22574;-74
2023/12/17 00:53:59;;;;;;;29.10;18.90;;;;;;;2.85;100.00;101396.71;87116;274;136922;-75
2023/12/17 00:56:01;;;;;;;23.50;17.20;;;;;;;2.85;100.00;101397.43;87058;267;22558;-74
2023/12/17 00:58:03;;;;;;;25.00;16.20;;;;;;;2.85;100.00;101394.31;87199;266;22642;-75
2023/12/17 01:00:06;;;;;;;24.30;15.60;;;;;;;2.85;100.00;101396.55;87088;277;137414;-75
2023/12/17 01:02:08;;;;;;;27.40;19.60;;;;;;;2.89;100.00;101391.36;87328;266;25185;-73
2023/12/17 01:04:10;;;;;;;23.70;16.70;;;;;;;2.91;100.00;101393.67;87100;270;138705;-74
2023/12/17 01:06:12;;;;;;;22.90;16.70;;;;;;;2.92;100.00;101394.84;87090;279;22735;-73
2023/12/17 01:08:14;;;;;;;20.70;15.10;;;;;;;2.94;100.00;101393.30;87010;271;137938;-73
2023/12/17 01:10:16;;;;;;;21.50;15.10;;;;;;;2.95;100.00;101395.51;86891;279;22534;-74
2023/12/17 01:12:19;;;;;;;27.20;15.70;;;;;;;2.94;100.00;101393.48;87148;279;137680;-70
2023/12/17 01:14:21;;;;;;;22.00;16.10;;;;;;;2.91;100.00;101393.34;87159;271;25083;-68
2023/12/17 01:16:23;;;;;;;29.40;17.90;;;;;;;2.87;100.00;101391.88;87201;271;137431;-73
2023/12/17 01:18:25;;;;;;;20.40;14.80;;;;;;;2.87;100.00;101389.95;86944;271;22549;-75
2023/12/17 01:20:28;;;;;;;25.10;15.30;;;;;;;2.89;100.00;101388.05;86965;267;138483;-75
2023/12/17 01:22:29;;;;;;;23.20;14.70;;;;;;;2.92;100.00;101383.94;86963;280;23779;-72
2023/12/17 01:24:32;;;;;;;24.50;15.70;;;;;;;2.95;100.00;101376.52;87011;271;137256;-73
2023/12/17 01:26:35;;;;;;;23.50;15.50;;;;;;;2.97;100.00;101375.02;87282;271;22570;-74
2023/12/17 01:28:37;;;;;;;25.60;14.90;;;;;;;2.98;100.00;101373.49;87199;271;138655;-75
2023/12/17 01:30:40;;;;;;;21.10;14.60;;;;;;;3.02;100.00;101379.71;87214;279;22579;-74
2023/12/17 01:32:43;;;;;;;22.90;15.80;;;;;;;3.03;100.00;101377.73;87383;271;137222;-74
2023/12/17 01:34:45;;;;;;;23.60;15.30;;;;;;;3.04;100.00;101376.06;87237;271;22974;-74
2023/12/17 01:36:49;;;;;;;23.50;16.10;;;;;;;3.07;100.00;101378.11;87198;267;136970;-70
2023/12/17 01:38:51;;;;;;;23.60;15.70;;;;;;;2.98;100.00;101365.55;87431;278;22581;-73
2023/12/17 01:40:53;;;;;;;25.40;15.20;;;;;;;3.07;100.00;101374.25;87194;269;137416;-75
2023/12/17 01:42:56;;;;;;;24.70;16.50;;;;;;;3.05;100.00;101370.67;87288;274;22655;-74
2023/12/17 01:44:58;;;;;;;24.30;15.50;;;;;;;3.05;100.00;101368.77;86999;274;137386;-73
2023/12/17 01:47:00;;;;;;;26.80;17.40;;;;;;;3.04;100.00;101364.45;87247;270;22562;-77
2023/12/17 01:49:02;;;;;;;26.70;15.90;;;;;;;3.01;100.00;101363.77;87068;274;137282;-74
2023/12/17 01:51:05;;;;;;;24.50;14.90;;;;;;;3.00;100.00;101366.86;87287;267;22850;-73
2023/12/17 01:53:07;;;;;;;22.50;16.80;;;;;;;3.00;100.00;101366.16;87255;278;137521;-74
2023/12/17 01:55:09;;;;;;;19.90;14.30;;;;;;;2.99;100.00;101362.72;87187;269;25083;-77
2023/12/17 01:57:12;;;;;;;23.20;15.70;;;;;;;2.98;100.00;101361.27;87140;266;137464;-77
2023/12/17 01:59:15;;;;;;;21.80;16.70;;;;;;;2.96;100.00;101356.63;87430;267;24963;-75
2023/12/17 02:01:17;;;;;;;22.00;14.80;;;;;;;2.94;100.00;101354.99;87174;271;137861;-76
2023/12/17 02:03:19;;;;;;;23.60;15.60;;;;;;;2.96;100.00;101355.39;87287;274;22674;-76
2023/12/17 02:05:22;;;;;;;24.00;16.30;;;;;;;2.89;100.00;101339.10;87013;276;138437;-75
2023/12/17 02:07:24;;;;;;;25.20;17.40;;;;;;;2.96;100.00;101351.03;87237;274;26592;-75
2023/12/17 02:09:26;;;;;;;24.50;16.20;;;;;;;2.98;100.00;101346.13;87092;271;137481;-74
2023/12/17 02:11:28;;;;;;;22.10;14.90;;;;;;;3.01;100.00;101344.50;87432;267;22568;-74
2023/12/17 02:13:30;;;;;;;20.30;14.70;;;;;;;2.96;100.00;101343.95;87118;278;137272;-75
2023/12/17 02:15:32;;;;;;;23.20;15.90;;;;;;;2.92;100.00;101343.70;87260;267;24026;-74
2023/12/17 02:17:34;;;;;;;22.50;16.10;;;;;;;2.92;100.00;101339.21;87161;271;137552;-75
2023/12/17 02:19:35;;;;;;;20.30;13.90;;;;;;;2.94;100.00;101327.46;86952;273;24250;-77
2023/12/17 02:21:38;;;;;;;17.00;12.60;;;;;;;2.96;100.00;101330.69;87174;274;138138;-75
2023/12/17 02:23:40;;;;;;;25.10;16.70;;;;;;;2.94;100.00;101330.62;86986;280;22558;-74
2023/12/17 02:25:43;;;;;;;22.30;16.20;;;;;;;2.91;100.00;101327.31;87149;267;138723;-75
2023/12/17 02:27:44;;;;;;;25.80;16.20;;;;;;;2.90;100.00;101326.46;87134;273;22583;-74
2023/12/17 02:29:47;;;;;;;17.40;13.30;;;;;;;2.93;100.00;101322.80;87153;278;137398;-69
2023/12/17 02:31:49;;;;;;;24.10;15.30;;;;;;;2.93;100.00;101324.67;87250;271;25139;-73
2023/12/17 02:33:51;;;;;;;19.50;14.20;;;;;;;2.93;100.00;101321.65;87133;274;137327;-74
2023/12/17 02:35:53;;;;;;;22.70;16.30;;;;;;;2.92;100.00;101321.45;87342;271;24010;-73
2023/12/17 02:37:54;;;;;;;21.40;14.40;;;;;;;2.91;100.00;101316.75;87208;271;138329;-74
2023/12/17 02:39:56;;;;;;;21.30;16.70;;;;;;;2.94;100.00;101316.58;87238;267;22568;-74
2023/12/17 02:41:58;;;;;;;23.30;15.60;;;;;;;2.97;100.00;101313.36;87191;278;138582;-75
2023/12/17 02:44:01;;;;;;;19.20;14.70;;;;;;;3.00;100.00;101305.27;87408;271;24033;-75
2023/12/17 02:46:04;;;;;;;20.30;13.90;;;;;;;3.01;100.00;101305.30;87199;271;25223;-73
2023/12/17 02:48:07;;;;;;;25.10;16.40;;;;;;;3.01;100.00;101300.43;87456;267;137895;-73
2023/12/17 02:50:10;;;;;;;23.20;16.20;;;;;;;3.01;100.00;101297.95;87225;274;22695;-74
2023/12/17 02:52:12;;;;;;;20.00;14.80;;;;;;;3.06;100.00;101294.42;87310;269;138893;-74
2023/12/17 02:54:14;;;;;;;20.50;12.20;;;;;;;3.07;100.00;101292.20;87299;270;22561;-74
2023/12/17 02:56:16;;;;;;;22.00;15.10;;;;;;;3.05;100.00;101286.45;87281;271;138366;-77
2023/12/17 02:58:18;;;;;;;21.90;16.10;;;;;;;3.02;100.00;101289.13;87275;270;22554;-76
2023/12/17 03:00:20;;;;;;;23.50;16.90;;;;;;;3.00;100.00;101284.84;87062;278;138814;-76
2023/12/17 03:02:22;;;;;;;17.40;13.60;;;;;;;3.02;100.00;101286.83;87251;267;25126;-76
2023/12/17 03:04:24;;;;;;;20.50;15.20;;;;;;;3.05;100.00;101288.00;87151;271;137955;-75
2023/12/17 03:06:26;;;;;;;22.40;15.80;;;;;;;3.05;100.00;101286.93;87239;266;22559;-73
2023/12/17 03:08:28;;;;;;;21.10;15.60;;;;;;;3.07;100.00;101286.95;87132;269;137246;-75
2023/12/17 03:10:30;;;;;;;19.00;14.20;;;;;;;3.10;100.00;101291.48;87246;269;22587;-77
2023/12/17 03:12:32;;;;;;;21.90;15.50;;;;;;;3.14;100.00;101285.92;87115;269;137556;-72
2023/12/17 03:14:34;;;;;;;21.30;15.10;;;;;;;3.14;100.00;101281.85;87333;270;25902;-75
2023/12/17 03:16:36;;;;;;;24.10;15.40;;;;;;;3.11;100.00;101274.35;86976;271;137423;-75
2023/12/17 03:18:38;;;;;;;21.40;14.00;;;;;;;3.09;100.00;101270.86;87201;269;24068;-75
2023/12/17 03:20:41;;;;;;;21.50;14.80;;;;;;;3.10;100.00;101265.52;87037;271;137125;-75
2023/12/17 03:22:43;;;;;;;20.30;16.00;;;;;;;3.09;100.00;101257.97;87421;262;22511;-76
2023/12/17 03:24:45;;;;;;;24.80;16.20;;;;;;;3.12;100.00;101254.11;87179;274;136935;-74
2023/12/17 03:26:47;;;;;;;26.40;16.00;;;;;;;3.15;100.00;101244.41;87241;269;24046;-74
2023/12/17 03:28:49;;;;;;;24.60;17.60;;;;;;;3.15;100.00;101244.23;87152;270;137662;-75
2023/12/17 03:30:51;;;;;;;24.70;16.40;;;;;;;3.14;100.00;101245.17;87213;271;24571;-74
2023/12/17 03:32:54;;;;;;;26.80;17.60;;;;;;;3.17;100.00;101244.06;87171;269;137461;-74
2023/12/17 03:34:56;;;;;;;30.60;18.50;;;;;;;3.22;100.00;101237.52;87246;278;23999;-72
2023/12/17 03:36:58;;;;;;;21.60;14.40;;;;;;;3.27;100.00;101234.98;87063;274;138850;-74
2023/12/17 03:39:00;;;;;;;23.50;16.40;;;;;;;3.28;100.00;101230.01;87234;271;22793;-74
2023/12/17 03:41:02;;;;;;;26.60;16.70;;;;;;;3.25;100.00;101232.05;86910;271;137096;-75
2023/12/17 03:43:04;;;;;;;26.50;17.40;;;;;;;3.22;100.00;101225.59;87279;275;27072;-74
2023/12/17 03:45:07;;;;;;;25.90;16.70;;;;;;;3.22;100.00;101225.78;87101;271;137100;-72
2023/12/17 03:47:10;;;;;;;23.90;16.20;;;;;;;3.23;100.00;101226.76;87146;270;22574;-75
2023/12/17 03:49:12;;;;;;;27.00;18.00;;;;;;;3.24;100.00;101225.44;87189;271;137229;-75
2023/12/17 03:51:14;;;;;;;24.50;18.30;;;;;;;3.22;100.00;101218.54;87213;271;24148;-69
2023/12/17 03:53:16;;;;;;;25.50;17.80;;;;;;;3.22;100.00;101212.77;87060;272;137768;-74
2023/12/17 03:55:19;;;;;;;23.90;17.70;;;;;;;3.20;100.00;101210.66;87190;267;24165;-75
2023/12/17 03:57:21;;;;;;;25.60;16.80;;;;;;;3.18;100.00;101209.02;86983;271;137298;-75
2023/12/17 03:59:22;;;;;;;24.90;17.60;;;;;;;3.16;100.00;101198.96;87090;266;22561;-73
2023/12/17 04:01:25;;;;;;;24.50;16.10;;;;;;;3.15;100.00;101193.63;87045;278;137449;-75
2023/12/17 04:03:26;;;;;;;25.00;17.10;;;;;;;3.16;100.00;101189.52;87121;263;23706;-74
2023/12/17 04:05:29;;;;;;;32.10;17.40;;;;;;;3.21;100.00;101192.85;87082;273;137355;-73
2023/12/17 04:07:33;;;;;;;23.80;17.40;;;;;;;3.27;100.00;101186.75;87278;273;22576;-76
2023/12/17 04:09:35;;;;;;;26.10;17.70;;;;;;;3.31;100.00;101185.01;87085;270;137464;-76
2023/12/17 04:11:37;;;;;;;23.00;17.30;;;;;;;3.36;100.00;101183.98;87184;271;24027;-74
2023/12/17 04:13:39;;;;;;;22.40;15.20;;;;;;;3.37;100.00;101176.98;87376;271;137925;-74
2023/12/17 04:15:41;;;;;;;24.70;17.00;;;;;;;3.37;100.00;101175.92;87232;270;22561;-72
2023/12/17 04:17:43;;;;;;;23.70;16.40;;;;;;;3.37;100.00;101174.37;87148;274;137566;-74
2023/12/17 04:19:46;;;;;;;24.50;17.10;;;;;;;3.39;100.00;101173.66;87247;271;24148;-75
2023/12/17 04:21:48;;;;;;;19.10;13.60;;;;;;;3.41;100.00;101165.78;87386;267;141135;-72
2023/12/17 04:23:51;;;;;;;23.70;15.70;;;;;;;3.39;100.00;101165.56;87260;267;22589;-74
2023/12/17 04:25:53;;;;;;;21.30;15.80;;;;;;;3.34;100.00;101163.17;87111;271;137323;-73
2023/12/17 04:27:56;;;;;;;19.80;13.90;;;;;;;3.32;100.00;101160.00;87192;271;22671;-75
2023/12/17 04:29:58;;;;;;;18.60;13.50;;;;;;;3.34;100.00;101150.52;87142;269;137867;-75
2023/12/17 04:32:00;;;;;;;18.50;14.50;;;;;;;3.34;100.00;101149.99;87154;277;22568;-74
2023/12/17 04:34:02;;;;;;;19.40;14.00;;;;;;;3.32;100.00;101137.69;87256;270;137146;-75
2023/12/17 04:36:04;;;;;;;21.20;14.50;;;;;;;3.32;100.00;101132.59;87248;270;137737;-74
2023/12/17 04:38:06;;;;;;;24.10;15.00;;;;;;;3.33;100.00;101127.77;87406;267;24915;-74
2023/12/17 04:40:10;;;;;;;18.20;14.70;;;;;;;3.36;100.00;101132.58;87244;267;138353;-75
2023/12/17 04:42:12;;;;;;;17.20;13.70;;;;;;;3.37;100.00;101131.83;87438;266;24004;-73
2023/12/17 04:44:13;;;;;;;19.40;13.00;;;;;;;3.37;100.00;101130.98;86986;270;137320;-74
2023/12/17 04:46:15;;;;;;;19.60;14.50;;;;;;;3.34;100.00;101127.00;87160;266;22842;-75
2023/12/17 04:48:18;;;;;;;17.60;12.80;;;;;;;3.31;100.00;101126.14;87061;273;137298;-75
2023/12/17 04:50:20;;;;;;;17.70;13.20;;;;;;;3.30;100.00;101125.02;86979;271;24286;-75
2023/12/17 04:52:22;;;;;;;20.00;13.80;;;;;;;3.26;100.00;101124.92;87054;266;136881;-77
2023/12/17 04:54:25;;;;;;;15.60;13.00;;;;;;;3.23;100.00;101128.70;87195;263;22579;-74
2023/12/17 04:56:27;;;;;;;19.00;12.50;;;;;;;3.21;100.00;101123.81;87254;278;138498;-75
2023/12/17 04:58:29;;;;;;;19.70;13.50;;;;;;;3.21;100.00;101122.03;87317;266;25223;-75
2023/12/17 05:00:31;;;;;;;20.50;13.90;;;;;;;3.19;100.00;101122.20;87302;270;137466;-73
2023/12/17 05:02:33;;;;;;;21.30;15.10;;;;;;;3.13;100.00;101118.76;88239;272;22584;-75
2023/12/17 05:04:35;;;;;;;17.90;13.60;;;;;;;3.11;100.00;101119.48;87864;266;139465;-75
2023/12/17 05:06:38;;;;;;;20.00;14.30;;;;;;;3.07;100.00;101119.05;88233;275;22531;-73
2023/12/17 05:08:40;;;;;;;20.10;13.80;;;;;;;3.05;100.00;101114.67;87996;271;138458;-75
2023/12/17 05:10:42;;;;;;;20.40;15.20;;;;;;;3.05;100.00;101113.30;87628;278;22540;-74
2023/12/17 05:12:44;;;;;;;18.60;13.40;;;;;;;3.06;100.00;101108.66;87427;270;137308;-75
2023/12/17 05:14:47;;;;;;;22.20;15.20;;;;;;;3.07;100.00;101105.39;87185;271;22566;-71
2023/12/17 05:16:49;;;;;;;17.80;13.60;;;;;;;3.08;100.00;101113.04;87264;263;137498;-75
2023/12/17 05:18:50;;;;;;;21.00;14.30;;;;;;;3.08;100.00;101108.33;87260;271;22567;-74
2023/12/17 05:20:53;;;;;;;20.40;15.70;;;;;;;3.03;100.00;101112.00;87425;271;137214;-73
2023/12/17 05:22:55;;;;;;;22.90;16.10;;;;;;;3.02;100.00;101115.80;87239;271;24033;-72
2023/12/17 05:24:57;;;;;;;20.00;15.30;;;;;;;3.04;100.00;101113.73;87179;271;137577;-74
2023/12/17 05:26:59;;;;;;;16.70;13.60;;;;;;;3.04;100.00;101116.48;87190;278;22570;-74
2023/12/17 05:29:01;;;;;;;18.80;14.70;;;;;;;3.02;100.00;101110.38;86911;268;138445;-75
2023/12/17 05:31:04;;;;;;;18.30;14.40;;;;;;;3.01;100.00;101112.15;87206;271;25079;-75
2023/12/17 05:33:07;;;;;;;20.40;15.10;;;;;;;3.03;100.00;101113.96;87141;271;138339;-76
2023/12/17 05:35:10;;;;;;;20.20;14.00;;;;;;;3.03;100.00;101113.75;87395;269;24007;-75
2023/12/17 05:37:12;;;;;;;18.70;14.10;;;;;;;3.08;100.00;101111.94;87004;271;136951;-73
2023/12/17 05:39:14;;;;;;;21.20;15.00;;;;;;;2.98;100.00;101092.40;87175;270;22554;-75
2023/12/17 05:41:17;;;;;;;22.60;15.80;;;;;;;3.09;100.00;101108.42;87152;267;137593;-72
2023/12/17 05:43:19;;;;;;;21.90;15.60;;;;;;;3.08;100.00;101107.23;87178;274;22564;-76
2023/12/17 05:45:21;;;;;;;19.50;13.50;;;;;;;3.12;100.00;101112.02;87132;266;138690;-74
2023/12/17 05:47:24;;;;;;;21.90;14.90;;;;;;;3.13;100.00;101112.84;87033;277;186418;-73
2023/12/17 05:49:27;;;;;;;19.30;13.70;;;;;;;3.11;100.00;101110.52;87191;277;137339;-75
2023/12/17 05:51:29;;;;;;;22.40;15.70;;;;;;;3.11;100.00;101109.41;87134;278;22580;-73
2023/12/17 05:53:33;;;;;;;20.10;15.00;;;;;;;3.08;100.00;101109.69;87026;278;137333;-76
2023/12/17 05:55:47;;;;;;;20.70;15.50;;;;;;;3.05;100.00;101108.17;87155;270;22539;-76
2023/12/17 05:57:50;;;;;;;24.50;17.60;;;;;;;3.05;100.00;101110.79;87002;270;137292;-76
2023/12/17 05:59:52;;;;;;;25.20;17.10;;;;;;;3.06;100.00;101108.13;87538;269;24154;-75
2023/12/17 06:01:55;;;;;;;21.90;16.20;;;;;;;3.10;100.00;101103.91;87034;267;137051;-74
2023/12/17 06:03:56;;;;;;;20.90;14.60;;;;;;;3.16;100.00;101099.74;87089;270;22515;-76
2023/12/17 06:05:59;;;;;;;24.40;16.20;;;;;;;3.21;100.00;101103.94;87162;267;137286;-74
2023/12/17 06:08:01;;;;;;;23.40;15.20;;;;;;;3.24;100.00;101101.79;87453;269;22558;-75
2023/12/17 06:10:04;;;;;;;22.90;15.40;;;;;;;3.25;100.00;101095.21;87114;279;25718;-75
2023/12/17 06:12:08;;;;;;;25.20;17.40;;;;;;;3.24;100.00;101096.14;87007;267;137472;-75
2023/12/17 06:14:10;;;;;;;20.60;15.30;;;;;;;3.23;100.00;101091.09;87129;271;22576;-76
2023/12/17 06:16:12;;;;;;;23.40;14.40;;;;;;;3.25;100.00;101085.69;87169;271;138729;-75
2023/12/17 06:18:16;;;;;;;26.80;16.90;;;;;;;3.23;100.00;101079.87;87196;271;22536;-74
2023/12/17 06:20:19;;;;;;;22.00;16.90;;;;;;;3.23;100.00;101076.40;87081;269;138318;-74
2023/12/17 06:22:23;;;;;;;25.30;16.80;;;;;;;3.24;100.00;101078.70;87025;263;25716;-75
2023/12/17 06:24:25;;;;;;;24.50;17.00;;;;;;;3.26;100.00;101084.73;87122;266;137362;-75
2023/12/17 06:26:27;;;;;;;26.20;16.80;;;;;;;3.25;100.00;101080.80;87136;270;24013;-74
2023/12/17 06:28:29;;;;;;;22.10;16.20;;;;;;;3.25;100.00;101079.37;87098;270;137275;-72
2023/12/17 06:30:32;;;;;;;23.80;16.20;;;;;;;3.27;100.00;101076.92;87235;266;23691;-75
2023/12/17 06:32:35;;;;;;;21.40;15.70;;;;;;;3.26;100.00;101073.70;87229;277;137558;-74
2023/12/17 06:34:38;;;;;;;22.70;16.40;;;;;;;3.31;100.00;101072.94;87273;268;25241;-76
2023/12/17 06:36:39;;;;;;;24.70;17.00;;;;;;;3.31;100.00;101072.71;87109;278;138736;-75
2023/12/17 06:38:42;;;;;;;22.80;16.80;;;;;;;3.30;100.00;101070.56;87104;276;25196;-73
2023/12/17 06:40:44;;;;;;;24.10;17.40;;;;;;;3.30;100.00;101069.27;87127;271;137214;-71
2023/12/17 06:42:46;;;;;;;20.40;16.20;;;;;;;3.32;100.00;101069.12;87267;269;22558;-74
2023/12/17 06:44:48;;;;;;;25.00;16.80;;;;;;;3.36;100.00;101065.91;87135;271;137278;-74
2023/12/17 06:46:50;;;;;;;23.40;16.40;;;;;;;3.38;100.00;101065.20;87166;270;25152;-74
2023/12/17 06:48:52;;;;;;;21.30;16.10;;;;;;;3.39;100.00;101065.63;87121;269;137314;-75
2023/12/17 06:50:54;;;;;;;22.80;15.80;;;;;;;3.41;100.00;101063.38;87217;270;25095;-76
2023/12/17 06:52:56;;;;;;;21.00;16.70;;;;;;;3.43;100.00;101062.16;87197;262;137245;-75
2023/12/17 06:54:58;;;;;;;21.50;14.80;;;;;;;3.45;100.00;101062.51;87173;269;22592;-74
2023/12/17 06:57:00;;;;;;;21.30;15.50;;;;;;;3.43;100.00;101062.28;87123;270;138343;-74
2023/12/17 06:59:02;;;;;;;20.70;14.60;;;;;;;3.41;100.00;101065.81;88981;268;24011;-77
2023/12/17 07:01:04;;;;;;;23.70;16.50;;;;;;;3.40;100.00;101066.77;87085;266;138070;-75
2023/12/17 07:03:07;;;;;;;22.00;14.30;;;;;;;3.40;100.00;101060.23;87294;278;24556;-76
2023/12/17 07:05:09;;;;;;;20.10;14.60;;;;;;;3.40;100.00;101055.71;87113;269;136948;-77
2023/12/17 07:07:12;;;;;;;24.90;15.60;;;;;;;3.39;100.00;101057.90;87153;271;25123;-74
2023/12/17 07:09:14;;;;;;;21.70;15.60;;;;;;;3.37;100.00;101059.98;87023;274;137587;-74
2023/12/17 07:11:16;;;;;;;18.20;13.80;;;;;;;3.35;100.00;101058.60;87374;274;22697;-76
2023/12/17 07:13:20;;;;;;;16.90;13.10;;;;;;;3.32;100.00;101055.31;86985;274;137262;-77
2023/12/17 07:15:22;;;;;;;19.70;13.80;;;;;;;3.30;100.00;101058.77;87037;271;22561;-73
2023/12/17 07:17:24;;;;;;;15.40;12.40;;;;;;;3.27;100.00;101052.13;86987;269;137726;-79
2023/12/17 07:19:26;;;;;;;18.20;13.30;;;;;;;3.16;100.00;101045.47;87587;266;24382;-77
2023/12/17 07:21:29;;;;;;;18.60;13.20;;;;;;;3.11;100.00;101044.69;87129;279;138322;-76
2023/12/17 07:23:31;;;;;;;15.30;12.30;;;;;;;3.12;100.00;101057.17;87127;269;23998;-74
2023/12/17 07:25:33;;;;;;;17.30;12.40;;;;;;;3.10;100.00;101062.63;87058;269;137094;-76
2023/12/17 07:27:35;;;;;;;13.60;11.30;;;;;;;3.07;100.00;101062.52;87202;270;22644;-75
2023/12/17 07:29:37;;;;;;;14.60;11.40;;;;;;;3.02;100.00;101062.44;87111;269;137452;-78
2023/12/17 07:31:42;;;;;;;15.40;12.30;;;;;;;2.98;100.00;101053.98;87335;274;24029;-77
2023/12/17 07:33:44;;;;;;;14.00;11.10;;;;;;;2.97;100.00;101048.05;87262;269;137159;-76
2023/12/17 07:35:47;;;;;;;16.90;12.70;;;;;;;2.99;100.00;101047.42;87034;270;24025;-74
2023/12/17 07:37:49;;;;;;;18.40;11.80;;;;;;;3.00;100.00;101046.63;87406;267;138065;-77
2023/12/17 07:39:51;;;;;;;16.10;12.30;;;;;;;3.01;100.00;101044.21;87272;278;22620;-77
2023/12/17 07:41:53;;;;;;;15.60;12.10;;;;;;;3.03;100.00;101038.48;87225;271;137074;-73
2023/12/17 07:43:57;;;;;;;17.30;12.40;;;;;;;3.06;100.00;101036.80;87362;269;24027;-72
2023/12/17 07:45:59;;;;;;;16.70;12.40;;;;;;;3.11;100.00;101039.73;87015;276;136544;-74
2023/12/17 07:48:01;;;;;;;14.10;11.00;;;;;;;3.15;100.00;101043.52;87204;271;22575;-78
2023/12/17 07:50:04;;;;;;;13.70;12.30;;;;;;;3.16;100.00;101042.11;87189;271;25203;-76
2023/12/17 07:52:06;;;;;;;18.20;13.00;;;;;;;3.20;100.00;101043.45;86965;267;137184;-73
2023/12/17 07:54:08;;;;;;;15.40;11.60;;;;;;;3.22;100.00;101044.67;87087;267;24007;-76
2023/12/17 07:56:10;;;;;;;18.50;11.70;;;;;;;3.23;100.00;101045.31;86998;269;138783;-78
2023/12/17 07:58:12;;;;;;;15.10;11.50;;;;;;;3.23;100.00;101048.95;87424;274;22575;-79
2023/12/17 08:00:15;;;;;;;14.60;11.30;;;;;;;3.24;100.00;101047.66;86854;271;136871;-72
2023/12/17 08:02:17;;;;;;;17.90;12.90;;;;;;;3.22;100.00;101045.04;87550;272;23943;-76
2023/12/17 08:04:19;;;;;;;14.30;11.00;;;;;;;3.18;100.00;101049.14;87000;267;137567;-77
2023/12/17 08:06:21;;;;;;;15.70;11.90;;;;;;;3.16;100.00;101050.82;87150;274;24135;-75
2023/12/17 08:08:24;;;;;;;16.20;12.10;;;;;;;3.11;100.00;101053.05;87692;270;137327;-73
2023/12/17 08:10:26;;;;;;;16.90;12.00;;;;;;;3.10;100.00;101050.73;87254;270;22576;-78
2023/12/17 08:12:29;;;;;;;15.80;12.60;;;;;;;3.08;100.00;101056.85;86972;271;137761;-76
2023/12/17 08:14:31;;;;;;;17.70;14.20;;;;;;;3.09;100.00;101053.77;87237;271;22579;-76
2023/12/17 08:16:33;;;;;;;19.60;13.60;;;;;;;3.12;100.00;101048.75;86984;268;137221;-75
2023/12/17 08:18:35;;;;;;;18.10;13.90;;;;;;;3.15;100.00;101054.58;87212;276;22570;-78
2023/12/17 08:20:39;;;;;;;16.10;12.70;;;;;;;3.17;100.00;101049.61;87474;271;137441;-80
2023/12/17 08:22:41;;;;;;;15.20;13.20;;;;;;;3.22;100.00;101048.33;87043;273;23520;-71
2023/12/17 08:24:43;;;;;;;15.50;12.60;;;;;;;3.26;100.00;101046.65;86963;273;138297;-76
2023/12/17 08:26:45;;;;;;;16.30;13.30;;;;;;;3.28;100.00;101045.25;87042;273;22587;-77
2023/12/17 08:28:47;;;;;;;15.30;13.20;;;;;;;3.29;100.00;101042.17;86982;270;137278;-74
2023/12/17 08:30:50;;;;;;;16.60;13.60;;;;;;;3.27;100.00;101041.06;87114;274;22536;-76
2023/12/17 08:32:52;;;;;;;17.50;14.40;;;;;;;3.29;100.00;101037.02;87520;265;137714;-78
2023/12/17 08:34:54;;;;;;;17.30;12.40;;;;;;;3.34;100.00;101030.56;87031;269;22585;-75
2023/12/17 08:36:56;;;;;;;17.00;12.20;;;;;;;3.37;100.00;101027.48;86951;274;138219;-71
2023/12/17 08:38:58;;;;;;;18.40;14.60;;;;;;;3.40;100.00;101027.25;87063;277;22551;-72
2023/12/17 08:41:01;;;;;;;17.90;13.20;;;;;;;3.43;100.00;101028.95;90073;269;138184;-73
2023/12/17 08:43:03;;;;;;;15.60;12.30;;;;;;;3.47;100.00;101024.71;90149;270;22475;-76
2023/12/17 08:45:06;;;;;;;14.80;11.90;;;;;;;3.50;100.00;101023.43;87137;263;137525;-70
2023/12/17 08:47:08;;;;;;;16.00;12.50;;;;;;;3.49;100.00;101018.91;87152;270;22565;-71
2023/12/17 08:49:11;;;;;;;14.40;11.60;;;;;;;3.53;100.00;101018.49;87059;271;137316;-75
2023/12/17 08:51:14;;;;;;;14.60;11.70;;;;;;;3.47;100.00;101008.73;87272;278;24026;-76
2023/12/17 08:53:19;;;;;;;15.10;10.20;;;;;;;3.52;100.00;101017.27;87044;278;138174;-77
2023/12/17 08:55:21;;;;;;;13.30;11.50;;;;;;;3.50;100.00;101012.69;87090;266;22630;-74
2023/12/17 08:57:23;;;;;;;10.90;9.40;;;;;;;3.49;100.00;101013.11;87026;271;137230;-73
2023/12/17 08:59:25;;;;;;;13.30;10.30;;;;;;;3.50;100.00;101007.28;87191;274;26322;-78
2023/12/17 09:01:27;;;;;;;15.30;11.10;;;;;;;3.47;100.00;101006.60;87057;271;137144;-78
2023/12/17 09:03:29;;;;;;;14.60;10.30;;;;;;;3.45;100.00;101002.39;87224;271;22567;-77
2023/12/17 09:05:32;;;;;;;12.60;10.10;;;;;;;3.45;100.00;101002.04;87162;271;137267;-76
2023/12/17 09:07:34;;;;;;;11.40;10.20;;;;;;;3.48;100.00;101004.06;87543;266;22575;-77
2023/12/17 09:09:36;;;;;;;11.20;9.30;;;;;;;3.50;100.00;101001.65;87091;271;137078;-76
2023/12/17 09:11:38;;;;;;;10.80;9.40;;;;;;;3.48;100.00;101002.50;87054;271;22677;-77
2023/12/17 09:13:41;;;;;;;13.10;10.20;;;;;;;3.45;100.00;101002.39;86961;271;137222;-78
2023/12/17 09:15:43;;;;;;;12.40;10.60;;;;;;;3.42;100.00;101002.86;87158;270;22565;-75
2023/12/17 09:17:45;;;;;;;13.80;8.70;;;;;;;3.40;100.00;101001.73;87440;271;137309;-78
2023/12/17 09:19:47;;;;;;;13.40;9.60;;;;;;;3.42;100.00;101006.00;89349;274;22562;-80